createdAt,value
2022-09-13T00:00:48.500Z,100757.31
2022-09-13T00:03:14.823Z,100754.44
2022-09-13T00:05:42.463Z,100740.81
2022-09-13T00:08:09.302Z,100741.66
2022-09-13T00:10:36.391Z,100744.34
2022-09-13T00:13:02.967Z,100746.00
2022-09-13T00:15:29.590Z,100750.34
2022-09-13T00:17:55.902Z,100740.44
2022-09-13T00:20:22.337Z,100735.06
2022-09-13T00:22:49.952Z,100736.47
2022-09-13T00:25:16.286Z,100729.25
2022-09-13T00:27:42.712Z,100723.88
2022-09-13T00:30:09.522Z,100722.22
2022-09-13T00:32:35.891Z,100718.72
2022-09-13T00:35:02.394Z,100728.22
2022-09-13T00:37:28.668Z,100730.72
2022-09-13T00:39:56.350Z,100724.31
2022-09-13T00:42:25.223Z,100723.50
2022-09-13T00:44:55.979Z,100717.28
2022-09-13T00:47:24.353Z,100724.31
2022-09-13T00:49:53.813Z,100720.81
2022-09-13T00:52:22.417Z,100719.16
2022-09-13T00:54:51.033Z,100720.19
2022-09-13T00:57:20.800Z,100718.31
2022-09-13T00:59:51.564Z,100711.28
2022-09-13T01:02:18.075Z,100711.28
2022-09-13T01:04:44.906Z,100712.31
2022-09-13T01:07:13.366Z,100711.69
2022-09-13T01:09:42.235Z,100717.06
2022-09-13T01:12:15.232Z,100711.69
2022-09-13T01:14:43.457Z,100711.28
2022-09-13T01:17:09.720Z,100705.09
2022-09-13T01:19:36.335Z,100707.97
2022-09-13T01:22:34.748Z,100706.13
2022-09-13T01:25:12.639Z,100701.78
2022-09-13T01:27:44.527Z,100703.63
2022-09-13T01:30:17.467Z,100694.56
2022-09-13T01:32:58.640Z,100690.00
2022-09-13T01:35:32.727Z,100691.03
2022-09-13T01:38:04.673Z,100674.94
2022-09-13T01:40:38.388Z,100680.31
2022-09-13T01:43:11.974Z,100673.91
2022-09-13T01:45:47.042Z,100662.97
2022-09-13T01:48:17.076Z,100675.38
2022-09-13T01:50:46.454Z,100671.66
2022-09-13T01:53:20.676Z,100665.25
2022-09-13T01:55:51.378Z,100669.81
2022-09-13T01:58:21.502Z,100679.47
2022-09-13T02:00:56.617Z,100674.09
2022-09-13T02:03:26.132Z,100674.09
2022-09-13T02:05:55.190Z,100683.22
2022-09-13T02:08:22.843Z,100692.31
2022-09-13T02:10:50.786Z,100677.84
2022-09-13T02:13:19.552Z,100677.03
2022-09-13T02:15:47.266Z,100678.69
2022-09-13T02:18:17.013Z,100674.09
2022-09-13T02:20:44.372Z,100679.72
2022-09-13T02:23:19.403Z,100685.28
2022-09-13T02:25:46.918Z,100684.44
2022-09-13T02:28:15.810Z,100681.75
2022-09-13T02:30:44.918Z,100689.00
2022-09-13T02:33:12.734Z,100690.84
2022-09-13T02:35:43.504Z,100691.88
2022-09-13T02:38:11.845Z,100691.88
2022-09-13T02:40:40.222Z,100700.94
2022-09-13T02:43:09.051Z,100703.63
2022-09-13T02:45:40.732Z,100708.19
2022-09-13T02:48:10.353Z,100705.50
2022-09-13T02:50:42.047Z,100699.50
2022-09-13T02:53:12.525Z,100705.88
2022-09-13T02:55:42.108Z,100704.25
2022-09-13T02:58:10.936Z,100707.13
2022-09-13T03:00:37.266Z,100702.78
2022-09-13T03:03:05.126Z,100714.56
2022-09-13T03:05:31.423Z,100711.03
2022-09-13T03:07:58.140Z,100703.00
2022-09-13T03:10:28.795Z,100700.50
2022-09-13T03:13:12.713Z,100706.69
2022-09-13T03:15:51.977Z,100703.19
2022-09-13T03:18:25.421Z,100690.81
2022-09-13T03:21:00.968Z,100693.28
2022-09-13T03:23:34.343Z,100689.97
2022-09-13T03:26:12.118Z,100686.66
2022-09-13T03:28:44.030Z,100688.75
2022-09-13T03:31:14.573Z,100684.16
2022-09-13T03:33:46.846Z,100681.50
2022-09-13T03:36:16.343Z,100686.84
2022-09-13T03:38:46.143Z,100680.69
2022-09-13T03:41:17.188Z,100676.94
2022-09-13T03:43:45.539Z,100680.69
2022-09-13T03:46:15.394Z,100682.31
2022-09-13T03:48:42.341Z,100676.94
2022-09-13T03:51:09.543Z,100680.06
2022-09-13T03:53:37.444Z,100683.78
2022-09-13T03:56:11.623Z,100684.78
2022-09-13T03:58:39.240Z,100690.16
2022-09-13T04:01:05.681Z,100685.00
2022-09-13T04:03:31.994Z,100680.00
2022-09-13T04:05:58.268Z,100674.84
2022-09-13T04:08:24.527Z,100665.16
2022-09-13T04:10:51.099Z,100675.91
2022-09-13T04:13:17.354Z,100686.63
2022-09-13T04:15:44.954Z,100689.31
2022-09-13T04:18:11.219Z,100693.63
2022-09-13T04:20:37.506Z,100684.75
2022-09-13T04:23:03.770Z,100671.34
2022-09-13T04:25:30.149Z,100673.81
2022-09-13T04:27:56.892Z,100671.97
2022-09-13T04:30:23.152Z,100678.16
2022-09-13T04:32:50.742Z,100672.78
2022-09-13T04:35:17.216Z,100687.88
2022-09-13T04:37:43.491Z,100687.47
2022-09-13T04:40:10.016Z,100690.16
2022-09-13T04:42:36.700Z,100705.44
2022-09-13T04:45:03.052Z,100695.91
2022-09-13T04:47:29.320Z,100700.66
2022-09-13T04:49:56.935Z,100695.72
2022-09-13T04:52:23.207Z,100705.81
2022-09-13T04:54:49.514Z,100704.53
2022-09-13T04:57:16.154Z,100706.00
2022-09-13T04:59:42.458Z,100716.09
2022-09-13T05:02:08.848Z,100716.09
2022-09-13T05:04:35.145Z,100715.44
2022-09-13T05:07:02.838Z,100715.25
2022-09-13T05:09:29.110Z,100713.59
2022-09-13T05:11:55.378Z,100712.78
2022-09-13T05:14:21.659Z,100710.09
2022-09-13T05:16:47.935Z,100696.69
2022-09-13T05:19:14.327Z,100697.50
2022-09-13T05:21:40.601Z,100700.81
2022-09-13T05:24:08.334Z,100702.47
2022-09-13T05:26:34.932Z,100707.63
2022-09-13T05:29:01.290Z,100711.97
2022-09-13T05:31:28.850Z,100719.19
2022-09-13T05:33:56.591Z,100711.97
2022-09-13T05:36:22.870Z,100713.41
2022-09-13T05:38:49.276Z,100707.03
2022-09-13T05:41:20.272Z,100707.66
2022-09-13T05:43:46.782Z,100711.59
2022-09-13T05:46:14.572Z,100714.91
2022-09-13T05:48:41.255Z,100712.84
2022-09-13T05:51:08.197Z,100715.34
2022-09-13T05:53:34.805Z,100714.13
2022-09-13T05:56:01.371Z,100714.13
2022-09-13T05:58:29.011Z,100715.56
2022-09-13T06:00:55.567Z,100714.31
2022-09-13T06:03:22.286Z,100717.44
2022-09-13T06:05:48.602Z,100722.63
2022-09-13T06:08:15.094Z,100722.22
2022-09-13T06:10:41.352Z,100715.59
2022-09-13T06:13:07.624Z,100721.59
2022-09-13T06:15:36.506Z,100717.88
2022-09-13T06:18:04.404Z,100730.91
2022-09-13T06:20:30.652Z,100732.16
2022-09-13T06:22:56.912Z,100730.09
2022-09-13T06:25:23.179Z,100719.97
2022-09-13T06:27:50.212Z,100729.50
2022-09-13T06:30:16.687Z,100724.75
2022-09-13T06:32:44.294Z,100724.13
2022-09-13T06:35:10.566Z,100718.56
2022-09-13T06:37:36.827Z,100720.84
2022-09-13T06:40:03.429Z,100708.88
2022-09-13T06:42:29.731Z,100709.28
2022-09-13T06:44:56.015Z,100710.72
2022-09-13T06:47:22.295Z,100711.16
2022-09-13T06:49:49.924Z,100708.88
2022-09-13T06:52:16.214Z,100710.31
2022-09-13T06:54:42.462Z,100705.41
2022-09-13T06:57:08.838Z,100706.88
2022-09-13T06:59:35.107Z,100702.72
2022-09-13T07:02:01.463Z,100713.91
2022-09-13T07:04:27.876Z,100714.31
2022-09-13T07:06:55.479Z,100720.91
2022-09-13T07:09:21.834Z,100721.34
2022-09-13T07:11:49.211Z,100730.41
2022-09-13T07:14:16.722Z,100726.50
2022-09-13T07:16:43.459Z,100727.56
2022-09-13T07:19:13.146Z,100719.69
2022-09-13T07:21:39.414Z,100728.78
2022-09-13T07:24:07.227Z,100725.88
2022-09-13T07:26:33.570Z,100728.34
2022-09-13T07:29:00.803Z,100727.53
2022-09-13T07:31:29.315Z,100720.47
2022-09-13T07:33:56.824Z,100724.00
2022-09-13T07:36:23.508Z,100735.75
2022-09-13T07:38:50.334Z,100743.63
2022-09-13T07:41:18.590Z,100739.28
2022-09-13T07:43:45.247Z,100737.59
2022-09-13T07:46:12.258Z,100742.97
2022-09-13T07:48:39.658Z,100743.75
2022-09-13T07:51:07.086Z,100748.28
2022-09-13T07:53:34.203Z,100750.97
2022-09-13T07:56:01.027Z,100750.94
2022-09-13T07:58:28.659Z,100740.38
2022-09-13T08:00:55.195Z,100748.41
2022-09-13T08:03:21.469Z,100745.47
2022-09-13T08:05:47.722Z,100751.66
2022-09-13T08:08:13.987Z,100746.22
2022-09-13T08:10:40.267Z,100741.44
2022-09-13T08:13:06.535Z,100751.13
2022-09-13T08:15:34.202Z,100752.41
2022-09-13T08:18:00.527Z,100756.31
2022-09-13T08:20:26.799Z,100758.13
2022-09-13T08:22:53.064Z,100753.09
2022-09-13T08:25:19.326Z,100762.41
2022-09-13T08:27:45.574Z,100762.97
2022-09-13T08:30:12.260Z,100768.25
2022-09-13T08:32:39.868Z,100767.75
2022-09-13T08:35:06.327Z,100763.19
2022-09-13T08:37:32.632Z,100767.25
2022-09-13T08:39:58.921Z,100763.47
2022-09-13T08:42:31.730Z,100765.91
2022-09-13T08:44:59.211Z,100762.31
2022-09-13T08:47:31.287Z,100763.91
2022-09-13T08:50:01.553Z,100759.72
2022-09-13T08:52:29.445Z,100755.91
2022-09-13T08:54:58.268Z,100762.69
2022-09-13T08:57:28.821Z,100761.47
2022-09-13T09:00:01.478Z,100751.28
2022-09-13T09:02:37.329Z,100739.13
2022-09-13T09:05:13.747Z,100747.06
2022-09-13T09:07:42.584Z,100750.03
2022-09-13T09:10:14.120Z,100743.31
2022-09-13T09:12:43.182Z,100748.63
2022-09-13T09:15:13.648Z,100745.97
2022-09-13T09:17:45.375Z,100751.28
2022-09-13T09:20:20.687Z,100741.69
2022-09-13T09:22:47.911Z,100748.78
2022-09-13T09:25:14.233Z,100750.91
2022-09-13T09:27:40.508Z,100748.44
2022-09-13T09:30:12.331Z,100746.59
2022-09-13T09:32:56.598Z,100755.63
2022-09-13T09:35:30.446Z,100743.91
2022-09-13T09:38:08.700Z,100743.56
2022-09-13T09:40:37.328Z,100754.63
2022-09-13T09:43:12.438Z,100744.50
2022-09-13T09:45:39.654Z,100738.53
2022-09-13T09:48:07.986Z,100737.34
2022-09-13T09:50:37.752Z,100738.41
2022-09-13T09:53:06.984Z,100738.63
2022-09-13T09:55:37.095Z,100737.78
2022-09-13T09:58:04.384Z,100736.97
2022-09-13T10:00:31.780Z,100735.44
2022-09-13T10:02:59.428Z,100743.66
2022-09-13T10:05:25.935Z,100740.25
2022-09-13T10:07:54.821Z,100737.78
2022-09-13T10:10:23.481Z,100738.25
2022-09-13T10:12:51.562Z,100738.59
2022-09-13T10:15:19.481Z,100741.38
2022-09-13T10:18:01.028Z,100742.34
2022-09-13T10:20:27.488Z,100738.25
2022-09-13T10:23:11.682Z,100731.91
2022-09-13T10:25:38.475Z,100734.50
2022-09-13T10:28:06.676Z,100736.84
2022-09-13T10:30:36.489Z,100739.56
2022-09-13T10:33:03.750Z,100740.03
2022-09-13T10:35:30.551Z,100739.22
2022-09-13T10:37:56.948Z,100735.44
2022-09-13T10:40:26.875Z,100734.72
2022-09-13T10:42:54.462Z,100732.16
2022-09-13T10:45:22.253Z,100729.66
2022-09-13T10:47:50.267Z,100732.31
2022-09-13T10:50:20.478Z,100724.75
2022-09-13T10:52:47.271Z,100720.69
2022-09-13T10:55:25.986Z,100728.47
2022-09-13T10:57:52.988Z,100720.41
2022-09-13T11:00:20.614Z,100717.81
2022-09-13T11:02:55.244Z,100716.56
2022-09-13T11:05:24.262Z,100715.13
2022-09-13T11:08:07.152Z,100711.47
2022-09-13T11:10:39.094Z,100715.31
2022-09-13T11:13:07.510Z,100708.00
2022-09-13T11:15:47.551Z,100705.03
2022-09-13T11:18:30.915Z,100693.06
2022-09-13T11:21:03.131Z,100702.81
2022-09-13T11:23:47.930Z,100702.25
2022-09-13T11:26:27.226Z,100702.75
2022-09-13T11:28:56.034Z,100699.59
2022-09-13T11:31:29.402Z,100697.75
2022-09-13T11:34:02.329Z,100689.91
2022-09-13T11:36:36.193Z,100682.94
2022-09-13T11:39:09.715Z,100689.00
2022-09-13T11:41:43.065Z,100680.94
2022-09-13T11:44:22.195Z,100676.63
2022-09-13T11:46:51.639Z,100675.56
2022-09-13T11:49:30.893Z,100676.63
2022-09-13T11:52:02.855Z,100682.63
2022-09-13T11:54:35.881Z,100684.03
2022-09-13T11:57:07.366Z,100676.50
2022-09-13T11:59:37.611Z,100683.00
2022-09-13T12:02:12.169Z,100693.44
2022-09-13T12:04:42.412Z,100689.50
2022-09-13T12:07:12.188Z,100685.44
2022-09-13T12:09:41.130Z,100679.22
2022-09-13T12:12:10.674Z,100680.13
2022-09-13T12:14:41.692Z,100678.84
2022-09-13T12:17:12.426Z,100682.78
2022-09-13T12:19:41.878Z,100680.94
2022-09-13T12:22:09.439Z,100673.06
2022-09-13T12:24:38.018Z,100667.38
2022-09-13T12:27:07.321Z,100663.09
2022-09-13T12:29:36.760Z,100652.81
2022-09-13T12:32:04.493Z,100660.53
2022-09-13T12:34:33.666Z,100663.59
2022-09-13T12:37:19.382Z,100667.75
2022-09-13T12:39:54.521Z,100654.75
2022-09-13T12:42:38.505Z,100654.78
2022-09-13T12:45:13.684Z,100643.91
2022-09-13T12:47:50.523Z,100643.19
2022-09-13T12:50:42.725Z,100643.97
2022-09-13T12:53:21.259Z,100652.81
2022-09-13T12:55:55.724Z,100654.81
2022-09-13T12:58:36.875Z,100651.72
2022-09-13T13:01:08.720Z,100656.78
2022-09-13T13:03:36.959Z,100656.97
2022-09-13T13:06:09.913Z,100658.06
2022-09-13T13:08:36.303Z,100652.16
2022-09-13T13:11:04.140Z,100660.16
2022-09-13T13:13:33.880Z,100654.06
2022-09-13T13:16:02.774Z,100649.72
2022-09-13T13:18:31.472Z,100653.94
2022-09-13T13:21:06.125Z,100647.69
2022-09-13T13:23:33.713Z,100646.75
2022-09-13T13:26:05.533Z,100640.19
2022-09-13T13:28:48.978Z,100641.41
2022-09-13T13:31:33.096Z,100643.28
2022-09-13T13:34:01.838Z,100640.63
2022-09-13T13:36:29.184Z,100644.56
2022-09-13T13:38:56.233Z,100642.72
2022-09-13T13:41:41.187Z,100644.84
2022-09-13T13:44:25.783Z,100641.38
2022-09-13T13:46:52.952Z,100637.97
2022-09-13T13:49:42.725Z,100642.34
2022-09-13T13:52:27.735Z,100632.88
2022-09-13T13:55:01.743Z,100633.56
2022-09-13T13:57:28.941Z,100643.59
2022-09-13T13:59:56.581Z,100636.41
2022-09-13T14:02:30.582Z,100634.94
2022-09-13T14:05:04.537Z,100640.06
2022-09-13T14:07:40.346Z,100634.38
2022-09-13T14:10:11.970Z,100630.34
2022-09-13T14:12:46.839Z,100633.81
2022-09-13T14:15:22.916Z,100637.84
2022-09-13T14:18:03.550Z,100625.34
2022-09-13T14:20:31.210Z,100623.13
2022-09-13T14:23:16.487Z,100623.91
2022-09-13T14:25:43.046Z,100629.63
2022-09-13T14:28:09.306Z,100629.63
2022-09-13T14:30:36.454Z,100627.94
2022-09-13T14:33:03.810Z,100630.09
2022-09-13T14:35:32.605Z,100622.75
2022-09-13T14:38:10.545Z,100619.03
2022-09-13T14:40:36.994Z,100624.72
2022-09-13T14:43:13.590Z,100626.91
2022-09-13T14:45:40.014Z,100622.03
2022-09-13T14:48:07.383Z,100628.00
2022-09-13T14:50:37.201Z,100630.16
2022-09-13T14:53:04.749Z,100629.06
2022-09-13T14:55:33.355Z,100632.31
2022-09-13T14:58:01.906Z,100623.81
2022-09-13T15:00:28.455Z,100627.44
2022-09-13T15:02:56.190Z,100626.22
2022-09-13T15:05:24.404Z,100632.66
2022-09-13T15:07:52.080Z,100627.81
2022-09-13T15:10:22.599Z,100632.09
2022-09-13T15:12:50.823Z,100630.13
2022-09-13T15:15:32.150Z,100620.88
2022-09-13T15:17:59.482Z,100621.81
2022-09-13T15:20:27.351Z,100627.63
2022-09-13T15:22:55.108Z,100621.13
2022-09-13T15:25:23.898Z,100617.00
2022-09-13T15:27:50.823Z,100625.50
2022-09-13T15:30:20.917Z,100616.69
2022-09-13T15:32:47.200Z,100625.28
2022-09-13T15:35:17.529Z,100621.66
2022-09-13T15:37:43.820Z,100616.91
2022-09-13T15:40:15.949Z,100612.34
2022-09-13T15:42:45.260Z,100612.69
2022-09-13T15:45:11.528Z,100613.94
2022-09-13T15:47:37.791Z,100615.41
2022-09-13T15:50:04.542Z,100611.00
2022-09-13T15:52:30.814Z,100606.25
2022-09-13T15:54:57.086Z,100601.66
2022-09-13T15:57:26.208Z,100598.03
2022-09-13T15:59:52.991Z,100604.78
2022-09-13T16:02:20.301Z,100596.75
2022-09-13T16:04:46.900Z,100604.59
2022-09-13T16:07:13.212Z,100600.00
2022-09-13T16:09:39.581Z,100600.41
2022-09-13T16:12:05.987Z,100599.50
2022-09-13T16:14:33.830Z,100599.19
2022-09-13T16:17:01.766Z,100598.09
2022-09-13T16:19:28.025Z,100596.38
2022-09-13T16:21:54.306Z,100593.66
2022-09-13T16:24:20.571Z,100595.53
2022-09-13T16:26:46.915Z,100590.94
2022-09-13T16:29:13.202Z,100600.63
2022-09-13T16:31:40.916Z,100604.31
2022-09-13T16:34:07.348Z,100608.81
2022-09-13T16:36:33.611Z,100606.38
2022-09-13T16:39:00.041Z,100608.75
2022-09-13T16:41:26.307Z,100605.69
2022-09-13T16:43:54.134Z,100603.97
2022-09-13T16:46:20.540Z,100608.56
2022-09-13T16:48:53.343Z,100601.16
2022-09-13T16:51:20.139Z,100604.84
2022-09-13T16:53:46.387Z,100613.22
2022-09-13T16:56:13.474Z,100607.91
2022-09-13T16:58:40.499Z,100599.22
2022-09-13T17:01:07.438Z,100598.16
2022-09-13T17:03:34.105Z,100602.03
2022-09-13T17:06:02.578Z,100600.97
2022-09-13T17:08:29.159Z,100596.88
2022-09-13T17:10:55.863Z,100595.72
2022-09-13T17:13:22.526Z,100588.66
2022-09-13T17:15:48.905Z,100583.03
2022-09-13T17:18:15.235Z,100582.09
2022-09-13T17:20:45.247Z,100589.41
2022-09-13T17:23:13.185Z,100591.53
2022-09-13T17:25:40.866Z,100589.31
2022-09-13T17:28:07.143Z,100586.72
2022-09-13T17:30:33.419Z,100592.88
2022-09-13T17:32:59.691Z,100591.69
2022-09-13T17:35:25.958Z,100587.03
2022-09-13T17:37:52.231Z,100590.44
2022-09-13T17:40:19.912Z,100585.47
2022-09-13T17:42:46.228Z,100584.34
2022-09-13T17:45:12.505Z,100579.38
2022-09-13T17:47:38.790Z,100581.50
2022-09-13T17:50:05.469Z,100585.72
2022-09-13T17:52:34.967Z,100576.66
2022-09-13T17:55:01.546Z,100570.66
2022-09-13T17:57:29.169Z,100573.00
2022-09-13T17:59:55.448Z,100577.84
2022-09-13T18:02:21.773Z,100576.66
2022-09-13T18:04:49.031Z,100568.44
2022-09-13T18:07:15.296Z,100571.63
2022-09-13T18:09:41.564Z,100563.16
2022-09-13T18:12:07.847Z,100569.25
2022-09-13T18:14:35.495Z,100566.44
2022-09-13T18:17:01.787Z,100569.38
2022-09-13T18:19:44.901Z,100577.72
2022-09-13T18:22:12.456Z,100576.06
2022-09-13T18:24:38.739Z,100581.16
2022-09-13T18:27:05.085Z,100582.44
2022-09-13T18:29:31.375Z,100581.84
2022-09-13T18:31:59.188Z,100588.28
2022-09-13T18:34:27.704Z,100579.59
2022-09-13T18:36:54.377Z,100590.41
2022-09-13T18:39:21.410Z,100585.00
2022-09-13T18:41:47.784Z,100588.75
2022-09-13T18:44:14.605Z,100591.94
2022-09-13T18:46:41.379Z,100583.47
2022-09-13T18:49:09.459Z,100582.06
2022-09-13T18:51:36.575Z,100581.22
2022-09-13T18:54:03.370Z,100580.16
2022-09-13T18:56:29.714Z,100580.03
2022-09-13T18:58:56.368Z,100570.94
2022-09-13T19:01:23.546Z,100570.47
2022-09-13T19:03:50.810Z,100580.06
2022-09-13T19:06:19.104Z,100568.09
2022-09-13T19:08:45.775Z,100571.69
2022-09-13T19:11:29.171Z,100588.94
2022-09-13T19:13:58.731Z,100581.56
2022-09-13T19:16:25.215Z,100579.69
2022-09-13T19:18:51.757Z,100587.91
2022-09-13T19:21:20.387Z,100591.66
2022-09-13T19:23:58.792Z,100598.97
2022-09-13T19:26:26.992Z,100608.28
2022-09-13T19:28:54.026Z,100605.47
2022-09-13T19:31:21.764Z,100608.50
2022-09-13T19:33:48.520Z,100611.00
2022-09-13T19:36:16.154Z,100611.97
2022-09-13T19:38:44.032Z,100597.22
2022-09-13T19:41:11.877Z,100600.94
2022-09-13T19:43:38.692Z,100606.56
2022-09-13T19:46:05.945Z,100600.78
2022-09-13T19:48:38.735Z,100606.34
2022-09-13T19:51:06.927Z,100611.53
2022-09-13T19:53:55.439Z,100622.06
2022-09-13T19:56:21.891Z,100618.41
2022-09-13T19:58:48.570Z,100623.84
2022-09-13T20:01:16.070Z,100616.06
2022-09-13T20:03:42.703Z,100612.00
2022-09-13T20:06:10.882Z,100617.91
2022-09-13T20:08:37.678Z,100618.94
2022-09-13T20:11:04.900Z,100624.16
2022-09-13T20:13:32.847Z,100619.03
2022-09-13T20:15:59.557Z,100620.72
2022-09-13T20:18:25.893Z,100623.06
2022-09-13T20:20:52.150Z,100618.28
2022-09-13T20:23:18.610Z,100629.56
2022-09-13T20:25:44.879Z,100618.84
2022-09-13T20:28:11.204Z,100624.72
2022-09-13T20:30:38.902Z,100625.78
2022-09-13T20:33:05.217Z,100632.06
2022-09-13T20:35:31.487Z,100621.50
2022-09-13T20:37:57.744Z,100632.09
2022-09-13T20:40:24.075Z,100641.84
2022-09-13T20:42:50.444Z,100634.00
2022-09-13T20:45:16.951Z,100624.94
2022-09-13T20:47:44.630Z,100619.78
2022-09-13T20:50:10.899Z,100611.94
2022-09-13T20:52:37.181Z,100614.38
2022-09-13T20:55:03.614Z,100604.44
2022-09-13T20:57:29.916Z,100610.72
2022-09-13T20:59:56.173Z,100610.72
2022-09-13T21:02:22.511Z,100616.28
2022-09-13T21:04:50.143Z,100624.16
2022-09-13T21:07:16.411Z,100614.44
2022-09-13T21:09:42.701Z,100614.66
2022-09-13T21:12:09.030Z,100625.63
2022-09-13T21:14:35.299Z,100629.97
2022-09-13T21:17:01.614Z,100616.09
2022-09-13T21:19:28.855Z,100616.50
2022-09-13T21:21:56.490Z,100617.34
2022-09-13T21:24:22.756Z,100613.66
2022-09-13T21:26:49.032Z,100616.34
2022-09-13T21:29:15.296Z,100612.00
2022-09-13T21:31:41.578Z,100606.00
2022-09-13T21:34:12.435Z,100607.44
2022-09-13T21:36:38.713Z,100605.78
2022-09-13T21:39:06.350Z,100600.00
2022-09-13T21:41:32.907Z,100609.94
2022-09-13T21:43:59.266Z,100609.75
2022-09-13T21:46:26.349Z,100602.34
2022-09-13T21:48:54.647Z,100598.19
2022-09-13T21:51:21.716Z,100590.97
2022-09-13T21:53:48.747Z,100593.06
2022-09-13T21:56:17.464Z,100591.81
2022-09-13T21:58:47.711Z,100593.06
2022-09-13T22:01:15.032Z,100598.06
2022-09-13T22:03:42.077Z,100594.75
2022-09-13T22:06:09.239Z,100593.72
2022-09-13T22:08:36.431Z,100593.94
2022-09-13T22:11:03.362Z,100601.16
2022-09-13T22:13:32.453Z,100614.63
2022-09-13T22:16:02.568Z,100616.69
2022-09-13T22:18:28.831Z,100616.31
2022-09-13T22:20:55.110Z,100613.03
2022-09-13T22:23:21.374Z,100619.44
2022-09-13T22:25:47.619Z,100620.88
2022-09-13T22:28:13.903Z,100613.66
2022-09-13T22:30:41.551Z,100619.44
2022-09-13T22:33:07.866Z,100619.66
2022-09-13T22:35:34.118Z,100616.13
2022-09-13T22:38:00.399Z,100604.78
2022-09-13T22:40:26.741Z,100606.03
2022-09-13T22:42:53.046Z,100601.28
2022-09-13T22:45:19.323Z,100602.94
2022-09-13T22:47:46.926Z,100596.72
2022-09-13T22:50:13.255Z,100595.66
2022-09-13T22:52:39.522Z,100594.88
2022-09-13T22:55:06.031Z,100590.09
2022-09-13T22:57:32.330Z,100590.28
2022-09-13T22:59:58.591Z,100584.94
2022-09-13T23:02:24.858Z,100580.38
2022-09-13T23:04:52.466Z,100584.13
2022-09-13T23:07:18.752Z,100576.28
2022-09-13T23:09:45.015Z,100572.50
2022-09-13T23:12:11.284Z,100565.69
2022-09-13T23:14:37.559Z,100569.63
2022-09-13T23:17:04.023Z,100570.03
2022-09-13T23:19:30.346Z,100563.63
2022-09-13T23:21:57.952Z,100559.94
2022-09-13T23:24:24.277Z,100551.25
2022-09-13T23:26:53.432Z,100553.31
2022-09-13T23:29:19.749Z,100550.66
2022-09-13T23:31:46.113Z,100553.53
2022-09-13T23:34:12.549Z,100546.91
2022-09-13T23:36:39.480Z,100540.31
2022-09-13T23:39:07.899Z,100538.44
2022-09-13T23:41:34.520Z,100541.13
2022-09-13T23:44:00.968Z,100545.06
2022-09-13T23:46:27.247Z,100535.16
2022-09-13T23:48:53.546Z,100546.31
2022-09-13T23:51:20.586Z,100539.28
2022-09-13T23:53:46.866Z,100537.19
2022-09-13T23:56:14.461Z,100537.41
2022-09-13T23:58:40.710Z,100528.75
